createdAt,value
2019-05-01T00:01:12.685Z,86.10
2019-05-01T00:03:57.354Z,86.30
2019-05-01T00:06:25.706Z,86.40
2019-05-01T00:08:51.982Z,86.50
2019-05-01T00:11:18.233Z,86.80
2019-05-01T00:13:44.755Z,87.10
2019-05-01T00:16:11.659Z,87.40
2019-05-01T00:18:37.897Z,87.10
2019-05-01T00:21:04.542Z,87.00
2019-05-01T00:23:30.834Z,87.20
2019-05-01T00:25:57.112Z,87.30
2019-05-01T00:28:23.338Z,87.50
2019-05-01T00:30:49.599Z,87.60
2019-05-01T00:33:15.851Z,87.60
2019-05-01T00:35:42.094Z,87.90
2019-05-01T00:38:08.347Z,88.10
2019-05-01T00:40:36.648Z,88.20
2019-05-01T00:43:02.920Z,88.20
2019-05-01T00:45:29.138Z,88.30
2019-05-01T00:47:55.437Z,88.40
2019-05-01T00:50:21.678Z,88.40
2019-05-01T00:52:47.922Z,88.60
2019-05-01T00:55:33.988Z,88.80
2019-05-01T00:58:07.850Z,89.10
2019-05-01T01:00:54.477Z,88.80
2019-05-01T01:03:21.007Z,88.80
2019-05-01T01:05:47.343Z,88.90
2019-05-01T01:08:13.737Z,88.90
2019-05-01T01:10:41.020Z,89.10
2019-05-01T01:13:09.169Z,88.70
2019-05-01T01:15:35.520Z,89.10
2019-05-01T01:18:01.795Z,89.20
2019-05-01T01:20:28.147Z,89.30
2019-05-01T01:23:02.029Z,89.30
2019-05-01T01:25:28.476Z,89.40
2019-05-01T01:27:54.817Z,89.50
2019-05-01T01:30:21.069Z,89.50
2019-05-01T01:32:47.357Z,89.70
2019-05-01T01:35:14.103Z,89.80
2019-05-01T01:37:40.451Z,89.70
2019-05-01T01:40:07.206Z,89.80
2019-05-01T01:42:33.859Z,90.00
2019-05-01T01:45:08.471Z,90.00
2019-05-01T01:47:37.228Z,90.10
2019-05-01T01:50:06.281Z,90.10
2019-05-01T01:52:33.138Z,90.10
2019-05-01T01:54:59.526Z,90.10
2019-05-01T01:57:25.974Z,90.10
2019-05-01T01:59:52.986Z,90.10
2019-05-01T02:02:23.752Z,90.10
2019-05-01T02:04:52.046Z,90.10
2019-05-01T02:07:18.948Z,90.20
2019-05-01T02:09:45.279Z,90.20
2019-05-01T02:12:12.226Z,90.20
2019-05-01T02:14:38.674Z,90.30
2019-05-01T02:17:05.514Z,90.30
2019-05-01T02:19:31.856Z,90.30
2019-05-01T02:21:58.258Z,90.30
2019-05-01T02:24:24.539Z,90.30
2019-05-01T02:26:53.898Z,90.30
2019-05-01T02:29:26.025Z,90.30
2019-05-01T02:32:00.464Z,90.30
2019-05-01T02:34:27.903Z,90.40
2019-05-01T02:36:57.868Z,90.30
2019-05-01T02:39:27.820Z,90.30
2019-05-01T02:41:59.488Z,90.30
2019-05-01T02:44:40.381Z,90.30
2019-05-01T02:47:11.140Z,90.40
2019-05-01T02:49:54.965Z,90.40
2019-05-01T02:52:26.956Z,90.40
2019-05-01T02:54:58.527Z,90.50
2019-05-01T02:57:26.162Z,90.50
2019-05-01T02:59:54.463Z,90.50
2019-05-01T03:02:25.418Z,90.50
2019-05-01T03:04:54.111Z,90.40
2019-05-01T03:07:23.550Z,90.50
2019-05-01T03:09:50.698Z,90.50
2019-05-01T03:12:21.482Z,90.50
2019-05-01T03:14:50.329Z,90.40
2019-05-01T03:17:34.729Z,90.40
2019-05-01T03:20:03.469Z,90.50
2019-05-01T03:22:42.695Z,90.40
2019-05-01T03:25:09.437Z,90.40
2019-05-01T03:27:35.822Z,90.40
2019-05-01T03:30:05.260Z,90.30
2019-05-01T03:32:33.521Z,90.40
2019-05-01T03:35:00.049Z,90.40
2019-05-01T03:37:27.495Z,90.50
2019-05-01T03:39:54.158Z,90.50
2019-05-01T03:42:20.806Z,90.50
2019-05-01T03:44:47.092Z,90.50
2019-05-01T03:47:14.774Z,90.50
2019-05-01T03:49:41.127Z,90.60
2019-05-01T03:52:07.559Z,90.60
2019-05-01T03:54:36.112Z,90.60
2019-05-01T03:57:02.861Z,90.60
2019-05-01T03:59:29.090Z,90.70
2019-05-01T04:02:12.748Z,90.60
2019-05-01T04:04:39.325Z,90.70
2019-05-01T04:07:05.756Z,91.00
2019-05-01T04:09:33.106Z,90.80
2019-05-01T04:12:00.746Z,90.80
2019-05-01T04:14:27.098Z,91.10
2019-05-01T04:16:55.362Z,90.90
2019-05-01T04:19:22.628Z,90.90
2019-05-01T04:21:54.142Z,91.00
2019-05-01T04:24:20.529Z,90.90
2019-05-01T04:26:47.068Z,91.00
2019-05-01T04:29:16.117Z,91.10
2019-05-01T04:31:44.385Z,91.10
2019-05-01T04:34:12.824Z,91.10
2019-05-01T04:36:47.103Z,91.10
2019-05-01T04:39:13.851Z,91.10
2019-05-01T04:41:40.577Z,91.10
2019-05-01T04:44:07.913Z,91.10
2019-05-01T04:46:34.253Z,91.10
2019-05-01T04:49:01.004Z,91.00
2019-05-01T04:51:27.434Z,91.00
2019-05-01T04:53:54.394Z,90.90
2019-05-01T04:56:20.935Z,90.90
2019-05-01T04:58:47.387Z,90.90
2019-05-01T05:01:13.827Z,90.90
2019-05-01T05:03:40.390Z,90.90
2019-05-01T05:06:06.818Z,90.50
2019-05-01T05:08:33.252Z,90.60
2019-05-01T05:11:01.941Z,90.60
2019-05-01T05:13:38.944Z,90.30
2019-05-01T05:16:08.520Z,90.10
2019-05-01T05:18:35.074Z,89.80
2019-05-01T05:21:01.627Z,89.90
2019-05-01T05:23:28.948Z,89.50
2019-05-01T05:25:55.234Z,89.50
2019-05-01T05:28:24.092Z,87.30
2019-05-01T05:30:52.626Z,82.50
2019-05-01T05:33:21.466Z,79.80
2019-05-01T05:35:52.107Z,74.70
2019-05-01T05:38:25.107Z,72.40
2019-05-01T05:40:52.065Z,68.80
2019-05-01T05:43:18.697Z,65.70
2019-05-01T05:45:45.659Z,62.50
2019-05-01T05:48:12.008Z,61.00
2019-05-01T05:51:01.604Z,59.00
2019-05-01T05:53:31.885Z,58.20
2019-05-01T05:56:03.814Z,56.90
2019-05-01T05:58:35.868Z,55.30
2019-05-01T06:01:04.732Z,53.70
2019-05-01T06:03:44.812Z,53.10
2019-05-01T06:06:21.639Z,51.40
2019-05-01T06:08:52.732Z,50.70
2019-05-01T06:11:22.957Z,49.40
2019-05-01T06:14:01.087Z,49.10
2019-05-01T06:16:52.173Z,48.50
2019-05-01T06:19:34.343Z,47.40
2019-05-01T06:22:10.430Z,46.80
2019-05-01T06:24:54.117Z,45.50
2019-05-01T06:27:20.567Z,45.30
2019-05-01T06:29:47.495Z,45.30
2019-05-01T06:32:13.903Z,44.90
2019-05-01T06:34:40.252Z,45.10
2019-05-01T06:37:06.885Z,44.40
2019-05-01T06:39:33.705Z,43.60
2019-05-01T06:42:00.651Z,43.50
2019-05-01T06:44:33.343Z,43.50
2019-05-01T06:47:19.826Z,43.00
2019-05-01T06:49:50.382Z,42.70
2019-05-01T06:52:19.035Z,42.00
2019-05-01T06:54:47.693Z,41.50
2019-05-01T06:57:14.260Z,41.30
2019-05-01T06:59:41.226Z,41.10
2019-05-01T07:02:15.874Z,41.20
2019-05-01T07:04:45.151Z,40.40
2019-05-01T07:07:24.801Z,41.30
2019-05-01T07:09:44.135Z,39.70
2019-05-01T07:12:13.516Z,39.90
2019-05-01T07:14:40.048Z,39.60
2019-05-01T07:17:09.036Z,40.40
2019-05-01T07:19:48.911Z,40.30
2019-05-01T07:22:15.407Z,40.30
2019-05-01T07:24:41.742Z,38.80
2019-05-01T07:27:08.096Z,39.60
2019-05-01T07:29:39.999Z,38.40
2019-05-01T07:32:06.336Z,38.70
2019-05-01T07:34:33.107Z,38.80
2019-05-01T07:37:00.635Z,38.50
2019-05-01T07:39:27.626Z,37.90
2019-05-01T07:41:56.156Z,38.70
2019-05-01T07:44:24.498Z,37.40
2019-05-01T07:47:05.382Z,36.60
2019-05-01T07:49:52.620Z,37.70
2019-05-01T07:52:18.767Z,37.50
2019-05-01T07:54:47.139Z,36.40
2019-05-01T07:57:15.187Z,36.70
2019-05-01T07:59:41.413Z,36.60
2019-05-01T08:02:09.574Z,36.00
2019-05-01T08:04:36.641Z,36.50
2019-05-01T08:07:03.449Z,36.30
2019-05-01T08:09:29.976Z,34.50
2019-05-01T08:11:56.262Z,34.70
2019-05-01T08:14:22.492Z,35.80
2019-05-01T08:16:48.721Z,34.80
2019-05-01T08:19:19.496Z,35.00
2019-05-01T08:21:47.632Z,35.80
2019-05-01T08:24:18.032Z,35.90
2019-05-01T08:26:44.153Z,34.90
2019-05-01T08:29:29.076Z,35.30
2019-05-01T08:32:09.334Z,33.80
2019-05-01T08:34:48.431Z,34.80
2019-05-01T08:37:06.603Z,36.50
2019-05-01T08:39:32.956Z,35.20
2019-05-01T08:42:03.065Z,33.70
2019-05-01T08:44:29.803Z,33.80
2019-05-01T08:46:59.181Z,33.30
2019-05-01T08:49:30.208Z,33.70
2019-05-01T08:51:56.441Z,33.40
2019-05-01T08:54:22.684Z,33.90
2019-05-01T08:56:52.978Z,31.90
2019-05-01T08:59:19.339Z,32.90
2019-05-01T09:01:45.841Z,32.10
2019-05-01T09:04:13.611Z,31.10
2019-05-01T09:06:43.947Z,32.90
2019-05-01T09:09:09.882Z,31.90
2019-05-01T09:11:37.328Z,32.00
2019-05-01T09:14:05.776Z,31.70
2019-05-01T09:16:31.999Z,33.10
2019-05-01T09:18:58.251Z,31.50
2019-05-01T09:21:24.516Z,32.80
2019-05-01T09:23:53.117Z,33.50
2019-05-01T09:26:20.880Z,34.60
2019-05-01T09:28:52.000Z,34.80
2019-05-01T09:31:20.146Z,32.80
2019-05-01T09:33:46.389Z,33.60
2019-05-01T09:36:12.660Z,31.40
2019-05-01T09:38:38.909Z,33.30
2019-05-01T09:41:05.426Z,32.70
2019-05-01T09:43:35.485Z,31.90
2019-05-01T09:46:00.037Z,32.30
2019-05-01T09:48:26.377Z,31.60
2019-05-01T09:50:54.523Z,31.60
2019-05-01T09:53:41.120Z,30.10
2019-05-01T09:56:09.723Z,33.30
2019-05-01T09:58:35.963Z,34.00
2019-05-01T10:01:02.482Z,35.50
2019-05-01T10:03:28.777Z,33.30
2019-05-01T10:05:55.111Z,34.30
2019-05-01T10:08:21.717Z,33.20
2019-05-01T10:10:48.005Z,34.20
2019-05-01T10:13:17.627Z,32.20
2019-05-01T10:15:42.454Z,32.70
2019-05-01T10:18:08.674Z,31.90
2019-05-01T10:20:34.978Z,30.10
2019-05-01T10:23:01.234Z,33.20
2019-05-01T10:25:27.501Z,35.30
2019-05-01T10:27:55.654Z,32.80
2019-05-01T10:30:26.720Z,32.80
2019-05-01T10:32:57.993Z,29.60
2019-05-01T10:35:24.970Z,32.00
2019-05-01T10:37:51.235Z,33.20
2019-05-01T10:40:17.656Z,33.60
2019-05-01T10:42:43.982Z,36.10
2019-05-01T10:45:10.547Z,34.10
2019-05-01T10:47:36.774Z,33.80
2019-05-01T10:50:03.434Z,30.90
2019-05-01T10:52:29.668Z,29.70
2019-05-01T10:54:55.907Z,30.30
2019-05-01T10:57:42.300Z,30.80
2019-05-01T11:00:10.243Z,32.90
2019-05-01T11:02:36.608Z,32.20
2019-05-01T11:05:04.557Z,32.90
2019-05-01T11:07:30.886Z,35.10
2019-05-01T11:09:57.218Z,32.80
2019-05-01T11:12:23.475Z,34.60
2019-05-01T11:14:49.721Z,35.00
2019-05-01T11:17:16.111Z,35.40
2019-05-01T11:19:42.352Z,35.90
2019-05-01T11:22:08.699Z,33.60
2019-05-01T11:24:34.935Z,34.10
2019-05-01T11:27:01.290Z,35.40
2019-05-01T11:29:27.531Z,34.50
2019-05-01T11:31:58.588Z,34.40
2019-05-01T11:34:43.412Z,34.70
2019-05-01T11:37:20.488Z,35.90
2019-05-01T11:40:01.574Z,33.50
2019-05-01T11:42:28.935Z,34.70
2019-05-01T11:44:55.279Z,32.50
2019-05-01T11:47:21.616Z,33.50
2019-05-01T11:49:47.938Z,32.70
2019-05-01T11:52:14.184Z,34.30
2019-05-01T11:54:40.528Z,34.40
2019-05-01T11:57:06.828Z,34.40
2019-05-01T11:59:33.052Z,36.30
2019-05-01T12:02:02.369Z,36.10
2019-05-01T12:04:27.762Z,36.00
2019-05-01T12:06:54.133Z,35.70
2019-05-01T12:09:20.511Z,36.50
2019-05-01T12:11:48.774Z,37.20
2019-05-01T12:14:15.045Z,37.30
2019-05-01T12:16:55.338Z,38.10
2019-05-01T12:19:23.992Z,38.80
2019-05-01T12:21:50.322Z,38.20
2019-05-01T12:24:16.626Z,37.70
2019-05-01T12:26:42.909Z,38.10
2019-05-01T12:29:09.218Z,37.10
2019-05-01T12:31:35.447Z,38.20
2019-05-01T12:34:01.690Z,39.00
2019-05-01T12:36:36.059Z,36.80
2019-05-01T12:38:56.079Z,37.00
2019-05-01T12:41:24.288Z,37.40
2019-05-01T12:43:50.512Z,36.20
2019-05-01T12:46:35.214Z,36.20
2019-05-01T12:49:01.551Z,35.60
2019-05-01T12:51:27.803Z,36.50
2019-05-01T12:54:01.870Z,37.40
2019-05-01T12:56:35.758Z,37.20
2019-05-01T12:59:02.089Z,39.00
2019-05-01T13:01:28.351Z,39.60
2019-05-01T13:03:54.609Z,39.50
2019-05-01T13:06:20.849Z,39.00
2019-05-01T13:08:47.136Z,37.90
2019-05-01T13:11:13.462Z,38.20
2019-05-01T13:13:39.734Z,38.80
2019-05-01T13:16:05.987Z,39.30
2019-05-01T13:18:32.236Z,39.30
2019-05-01T13:20:58.480Z,39.20
2019-05-01T13:23:24.755Z,39.30
2019-05-01T13:25:52.909Z,38.90
2019-05-01T13:28:37.527Z,38.10
2019-05-01T13:31:05.803Z,38.20
2019-05-01T13:33:32.632Z,39.10
2019-05-01T13:35:58.895Z,38.40
2019-05-01T13:38:25.117Z,36.50
2019-05-01T13:40:51.810Z,37.00
2019-05-01T13:43:18.053Z,36.50
2019-05-01T13:45:46.363Z,36.90
2019-05-01T13:48:12.665Z,37.20
2019-05-01T13:50:38.905Z,37.30
2019-05-01T13:53:05.421Z,38.20
2019-05-01T13:55:31.638Z,36.50
2019-05-01T13:57:57.870Z,37.40
2019-05-01T14:00:25.928Z,37.20
2019-05-01T14:02:52.165Z,36.40
2019-05-01T14:05:19.020Z,37.90
2019-05-01T14:07:45.265Z,37.10
2019-05-01T14:10:11.894Z,37.70
2019-05-01T14:12:38.141Z,39.00
2019-05-01T14:15:06.633Z,37.80
2019-05-01T14:17:32.917Z,37.70
2019-05-01T14:20:01.107Z,38.30
2019-05-01T14:22:29.289Z,38.60
2019-05-01T14:25:00.439Z,38.00
2019-05-01T14:27:26.917Z,38.30
2019-05-01T14:29:53.123Z,38.00
2019-05-01T14:32:19.353Z,37.20
2019-05-01T14:34:45.601Z,37.00
2019-05-01T14:37:11.861Z,38.20
2019-05-01T14:39:38.148Z,38.70
2019-05-01T14:42:06.409Z,38.70
2019-05-01T14:44:36.955Z,38.60
2019-05-01T14:47:00.788Z,38.80
2019-05-01T14:49:27.119Z,39.20
2019-05-01T14:51:53.358Z,39.70
2019-05-01T14:54:19.715Z,39.90
2019-05-01T14:56:45.972Z,40.10
2019-05-01T14:59:12.207Z,40.20
2019-05-01T15:01:38.455Z,40.50
2019-05-01T15:04:04.840Z,40.60
2019-05-01T15:06:31.082Z,40.80
2019-05-01T15:08:57.319Z,39.90
2019-05-01T15:11:23.577Z,40.00
2019-05-01T15:13:51.970Z,38.90
2019-05-01T15:16:35.226Z,39.20
2019-05-01T15:19:12.792Z,38.90
2019-05-01T15:21:39.140Z,38.60
2019-05-01T15:24:05.464Z,38.40
2019-05-01T15:26:31.722Z,39.10
2019-05-01T15:28:58.013Z,39.60
2019-05-01T15:31:24.240Z,39.10
2019-05-01T15:33:50.480Z,37.80
2019-05-01T15:36:16.713Z,39.50
2019-05-01T15:38:42.948Z,39.20
2019-05-01T15:41:13.981Z,39.50
2019-05-01T15:43:59.067Z,39.70
2019-05-01T15:46:25.358Z,39.30
2019-05-01T15:48:51.582Z,39.30
2019-05-01T15:51:17.931Z,39.50
2019-05-01T15:53:44.193Z,39.70
2019-05-01T15:56:10.567Z,39.80
2019-05-01T15:58:36.811Z,40.60
2019-05-01T16:01:03.388Z,38.90
2019-05-01T16:03:30.770Z,39.70
2019-05-01T16:05:57.842Z,41.00
2019-05-01T16:08:24.134Z,41.70
2019-05-01T16:10:52.311Z,40.40
2019-05-01T16:13:18.878Z,41.20
2019-05-01T16:15:45.197Z,41.10
2019-05-01T16:18:12.976Z,40.20
2019-05-01T16:20:39.302Z,40.00
2019-05-01T16:23:05.561Z,39.90
2019-05-01T16:25:31.843Z,40.70
2019-05-01T16:27:58.146Z,40.60
2019-05-01T16:30:26.315Z,41.10
2019-05-01T16:32:52.701Z,41.40
2019-05-01T16:35:19.068Z,41.90
2019-05-01T16:37:45.434Z,41.60
2019-05-01T16:40:14.016Z,41.80
2019-05-01T16:42:40.295Z,42.30
2019-05-01T16:45:07.570Z,42.70
2019-05-01T16:47:33.810Z,43.50
2019-05-01T16:50:00.118Z,44.50
2019-05-01T16:52:28.275Z,44.80
2019-05-01T16:54:59.310Z,45.20
2019-05-01T16:57:23.166Z,45.10
2019-05-01T16:59:49.394Z,41.90
2019-05-01T17:02:23.420Z,42.50
2019-05-01T17:04:54.249Z,41.60
2019-05-01T17:07:27.494Z,42.30
2019-05-01T17:09:55.665Z,43.40
2019-05-01T17:12:24.173Z,42.60
2019-05-01T17:14:50.462Z,42.40
2019-05-01T17:17:18.718Z,42.20
2019-05-01T17:19:45.053Z,42.80
2019-05-01T17:22:14.372Z,43.60
2019-05-01T17:24:39.555Z,43.40
2019-05-01T17:27:05.910Z,43.80
2019-05-01T17:29:32.191Z,43.40
2019-05-01T17:31:58.432Z,45.20
2019-05-01T17:34:25.603Z,45.10
2019-05-01T17:36:52.929Z,47.20
2019-05-01T17:39:20.258Z,47.00
2019-05-01T17:41:46.919Z,47.00
2019-05-01T17:44:13.206Z,46.90
2019-05-01T17:46:41.960Z,48.20
2019-05-01T17:49:09.423Z,49.00
2019-05-01T17:51:35.764Z,49.30
2019-05-01T17:54:02.653Z,51.00
2019-05-01T17:56:28.906Z,51.20
2019-05-01T17:58:55.437Z,51.20
2019-05-01T18:01:27.933Z,51.20
2019-05-01T18:03:53.776Z,51.00
2019-05-01T18:06:22.042Z,51.40
2019-05-01T18:08:48.294Z,52.90
2019-05-01T18:11:15.760Z,54.40
2019-05-01T18:13:42.181Z,55.40
2019-05-01T18:16:08.555Z,56.10
2019-05-01T18:18:34.832Z,56.30
2019-05-01T18:21:01.896Z,57.30
2019-05-01T18:23:36.519Z,57.70
2019-05-01T18:26:20.899Z,57.80
2019-05-01T18:29:05.731Z,58.00
2019-05-01T18:31:33.127Z,58.10
2019-05-01T18:34:02.377Z,58.20
2019-05-01T18:36:32.461Z,58.50
2019-05-01T18:39:01.902Z,59.00
2019-05-01T18:41:37.704Z,59.40
2019-05-01T18:44:10.179Z,59.60
2019-05-01T18:46:35.361Z,60.00
2019-05-01T18:49:03.610Z,60.20
2019-05-01T18:51:31.486Z,60.50
2019-05-01T18:53:59.410Z,60.90
2019-05-01T18:56:27.296Z,61.40
2019-05-01T18:58:55.320Z,61.80
2019-05-01T19:01:23.228Z,63.20
2019-05-01T19:03:51.216Z,62.60
2019-05-01T19:06:20.042Z,63.00
2019-05-01T19:08:48.857Z,63.50
2019-05-01T19:11:19.293Z,64.20
2019-05-01T19:13:49.945Z,64.50
2019-05-01T19:16:17.959Z,64.80
2019-05-01T19:18:46.491Z,65.20
2019-05-01T19:21:16.608Z,66.00
2019-05-01T19:23:44.817Z,65.90
2019-05-01T19:26:14.526Z,65.90
2019-05-01T19:28:42.845Z,66.20
2019-05-01T19:31:10.836Z,66.70
2019-05-01T19:33:41.652Z,66.80
2019-05-01T19:36:10.474Z,67.20
2019-05-01T19:38:38.526Z,67.30
2019-05-01T19:41:08.392Z,67.70
2019-05-01T19:43:42.190Z,68.20
2019-05-01T19:46:11.262Z,68.40
2019-05-01T19:48:39.292Z,68.90
2019-05-01T19:51:08.961Z,69.10
2019-05-01T19:53:36.948Z,69.20
2019-05-01T19:56:05.106Z,69.40
2019-05-01T19:58:33.475Z,69.60
2019-05-01T20:01:04.528Z,69.80
2019-05-01T20:03:36.449Z,70.00
2019-05-01T20:06:05.538Z,70.20
2019-05-01T20:08:32.221Z,70.50
2019-05-01T20:11:00.488Z,70.90
2019-05-01T20:13:28.789Z,71.20
2019-05-01T20:15:57.076Z,71.50
2019-05-01T20:18:25.184Z,71.60
2019-05-01T20:20:53.335Z,72.00
2019-05-01T20:23:26.245Z,72.10
2019-05-01T20:25:55.992Z,72.60
2019-05-01T20:28:22.443Z,72.90
2019-05-01T20:30:50.726Z,73.10
2019-05-01T20:33:19.228Z,73.30
2019-05-01T20:35:47.094Z,73.80
2019-05-01T20:38:15.264Z,73.90
2019-05-01T20:40:43.153Z,73.90
2019-05-01T20:43:11.190Z,74.00
2019-05-01T20:45:39.195Z,74.20
2019-05-01T20:48:07.076Z,74.50
2019-05-01T20:50:35.281Z,75.20
2019-05-01T20:53:03.185Z,74.80
2019-05-01T20:55:31.133Z,75.10
2019-05-01T20:58:12.636Z,75.10
2019-05-01T21:00:40.954Z,76.10
2019-05-01T21:03:07.780Z,76.00
2019-05-01T21:05:38.774Z,75.90
2019-05-01T21:08:21.908Z,76.00
2019-05-01T21:10:50.982Z,75.90
2019-05-01T21:13:17.838Z,76.20
2019-05-01T21:15:47.451Z,76.40
2019-05-01T21:18:13.971Z,76.80
2019-05-01T21:20:40.278Z,76.90
2019-05-01T21:23:10.590Z,77.20
2019-05-01T21:25:35.067Z,77.20
2019-05-01T21:28:01.405Z,77.30
2019-05-01T21:30:27.768Z,77.50
2019-05-01T21:32:54.231Z,78.50
2019-05-01T21:35:20.650Z,78.60
2019-05-01T21:37:46.992Z,78.60
2019-05-01T21:40:13.454Z,78.90
2019-05-01T21:42:39.693Z,79.00
2019-05-01T21:45:06.148Z,79.20
2019-05-01T21:47:33.496Z,79.40
2019-05-01T21:49:59.846Z,79.40
2019-05-01T21:52:26.973Z,79.60
2019-05-01T21:54:55.512Z,79.60
2019-05-01T21:57:21.620Z,79.70
2019-05-01T21:59:48.230Z,79.70
2019-05-01T22:02:14.597Z,79.80
2019-05-01T22:04:40.823Z,79.80
2019-05-01T22:07:09.686Z,79.90
2019-05-01T22:09:38.056Z,80.00
2019-05-01T22:12:08.315Z,80.00
2019-05-01T22:14:41.029Z,80.20
2019-05-01T22:17:09.212Z,80.20
2019-05-01T22:19:35.659Z,80.60
2019-05-01T22:22:03.840Z,81.60
2019-05-01T22:24:44.250Z,80.80
2019-05-01T22:27:12.431Z,80.90
2019-05-01T22:29:52.960Z,80.80
2019-05-01T22:32:27.609Z,80.90
2019-05-01T22:34:57.273Z,81.10
2019-05-01T22:37:23.945Z,81.30
2019-05-01T22:39:54.999Z,81.80
2019-05-01T22:42:21.271Z,81.40
2019-05-01T22:44:47.494Z,81.40
2019-05-01T22:47:15.118Z,81.40
2019-05-01T22:49:42.283Z,81.30
2019-05-01T22:52:08.534Z,81.30
2019-05-01T22:54:34.791Z,81.40
2019-05-01T22:57:01.003Z,81.40
2019-05-01T22:59:27.296Z,82.10
2019-05-01T23:01:55.468Z,81.30
2019-05-01T23:04:21.707Z,81.40
2019-05-01T23:06:48.048Z,81.40
2019-05-01T23:09:16.812Z,81.30
2019-05-01T23:11:44.571Z,81.50
2019-05-01T23:14:12.082Z,81.40
2019-05-01T23:16:40.372Z,81.40
2019-05-01T23:19:06.726Z,81.30
2019-05-01T23:21:33.032Z,81.40
2019-05-01T23:24:02.028Z,81.50
2019-05-01T23:26:27.425Z,81.50
2019-05-01T23:28:53.650Z,81.60
2019-05-01T23:31:20.201Z,81.50
2019-05-01T23:33:50.675Z,81.60
2019-05-01T23:36:23.354Z,81.50
2019-05-01T23:38:42.793Z,81.40
2019-05-01T23:41:44.606Z,81.50
2019-05-01T23:43:51.775Z,81.60
2019-05-01T23:46:18.033Z,81.70
2019-05-01T23:48:44.254Z,81.70
2019-05-01T23:51:10.534Z,81.60
2019-05-01T23:53:36.810Z,81.50
2019-05-01T23:56:03.276Z,81.50
2019-05-01T23:58:29.561Z,81.50
